Time,TemperatureF,DewpointF,PressureIn,WindDirection,WindDirectionDegrees,WindSpeedMPH,WindSpeedGustMPH,Humidity,HourlyPrecipIn,Conditions,Clouds,dailyrainin,SoftwareType,DateUTC
2013-04-06 00:45:00,28.8,16.3,29.78,NW,308,8.0,8.0,59,0.00,,,0.00,Wunderground v.1.15,2013-04-06 04:45:00,
2013-04-06 01:06:00,28.4,13.0,29.78,West,265,10.0,22.0,52,0.00,,,0.00,Wunderground v.1.15,2013-04-06 05:06:00,
2013-04-06 01:16:00,28.4,13.4,29.79,WNW,303,7.0,7.0,53,0.00,,,0.00,Wunderground v.1.15,2013-04-06 05:16:00,
2013-04-06 02:05:00,27.2,15.5,29.79,NW,311,11.0,11.0,61,0.00,,,0.00,Wunderground v.1.15,2013-04-06 06:05:00,
2013-04-06 02:16:00,25.4,20.1,29.81,North,5,7.0,7.0,80,0.00,,,0.00,Wunderground v.1.15,2013-04-06 06:16:00,
2013-04-06 02:35:00,25.7,15.2,29.82,NW,319,6.0,18.0,64,0.00,,,0.00,Wunderground v.1.15,2013-04-06 06:35:00,
2013-04-06 02:46:00,26.0,14.4,29.81,West,279,6.0,18.0,61,0.00,,,0.00,Wunderground v.1.15,2013-04-06 06:46:00,
2013-04-06 03:05:00,25.7,13.3,29.82,West,275,12.0,12.0,59,0.00,,,0.00,Wunderground v.1.15,2013-04-06 07:05:00,
2013-04-06 03:16:00,25.6,12.9,29.83,West,261,7.0,26.0,58,0.00,,,0.00,Wunderground v.1.15,2013-04-06 07:16:00,
2013-04-06 04:05:00,23.8,11.9,29.87,West,279,6.0,14.0,60,0.00,,,0.00,Wunderground v.1.15,2013-04-06 08:05:00,
2013-04-06 04:16:00,23.6,9.4,29.88,West,261,8.0,14.0,54,0.00,,,0.00,Wunderground v.1.15,2013-04-06 08:16:00,
2013-04-06 04:35:00,22.9,8.3,29.89,WNW,286,8.0,22.0,53,0.00,,,0.00,Wunderground v.1.15,2013-04-06 08:35:00,
2013-04-06 04:46:00,22.1,9.9,29.90,NW,309,12.0,12.0,59,0.00,,,0.00,Wunderground v.1.15,2013-04-06 08:46:00,
2013-04-06 04:56:00,22.2,10.0,29.90,NW,306,8.0,8.0,59,0.00,,,0.00,Wunderground v.1.15,2013-04-06 08:56:00,
2013-04-06 05:06:00,22.1,9.9,29.91,WNW,291,7.0,33.0,59,0.00,,,0.00,Wunderground v.1.15,2013-04-06 09:06:00,
2013-04-06 05:26:00,21.3,4.2,29.92,NNW,345,10.0,10.0,47,0.00,,,0.00,Wunderground v.1.15,2013-04-06 09:26:00,
2013-04-06 05:45:00,20.0,6.4,29.95,NW,313,12.0,12.0,55,0.00,,,0.00,Wunderground v.1.15,2013-04-06 09:45:00,
2013-04-06 05:55:00,20.0,5.6,29.95,West,275,13.0,13.0,53,0.00,,,0.00,Wunderground v.1.15,2013-04-06 09:55:00,
2013-04-06 06:35:00,19.7,5.7,30.00,WNW,298,5.0,32.0,54,0.00,,,0.00,Wunderground v.1.15,2013-04-06 10:35:00,
2013-04-06 06:46:00,19.7,4.5,30.01,NW,310,6.0,6.0,51,0.00,,,0.00,Wunderground v.1.15,2013-04-06 10:46:00,
2013-04-06 07:05:00,20.0,3.0,30.02,NNW,329,6.0,6.0,47,0.00,,,0.00,Wunderground v.1.15,2013-04-06 11:05:00,
2013-04-06 07:15:00,20.3,3.2,30.03,NW,309,4.0,22.0,47,0.00,,,0.00,Wunderground v.1.15,2013-04-06 11:15:00,
2013-04-06 07:26:00,20.5,3.0,30.03,NNW,328,6.0,22.0,46,0.00,,,0.00,Wunderground v.1.15,2013-04-06 11:26:00,
2013-04-06 08:35:00,20.6,4.4,30.05,West,259,9.0,9.0,49,0.00,,,0.00,Wunderground v.1.15,2013-04-06 12:35:00,
2013-04-06 08:45:00,21.0,3.4,30.07,SW,228,7.0,7.0,46,0.00,,,0.00,Wunderground v.1.15,2013-04-06 12:45:00,
2013-04-06 08:55:00,21.8,3.2,30.07,WNW,293,6.0,22.0,44,0.00,,,0.00,Wunderground v.1.15,2013-04-06 12:55:00,
2013-04-06 10:05:00,23.9,2.5,30.08,West,273,9.0,23.0,39,0.00,,,0.00,Wunderground v.1.15,2013-04-06 14:05:00,
2013-04-06 10:15:00,23.9,-0.4,30.07,West,281,15.0,23.0,34,0.00,,,0.00,Wunderground v.1.15,2013-04-06 14:15:00,
2013-04-06 10:26:00,23.9,0.8,30.07,WNW,292,18.0,24.0,36,0.00,,,0.00,Wunderground v.1.15,2013-04-06 14:26:00,
2013-04-06 10:35:00,24.4,0.0,30.08,WNW,299,19.0,33.0,34,0.00,,,0.00,Wunderground v.1.15,2013-04-06 14:35:00,
2013-04-06 10:45:00,24.8,-0.9,30.06,WNW,295,20.0,20.0,32,0.00,,,0.00,Wunderground v.1.15,2013-04-06 14:45:00,
2013-04-06 10:56:00,25.4,-1.1,30.06,WNW,289,21.0,33.0,31,0.00,,,0.00,Wunderground v.1.15,2013-04-06 14:56:00,
2013-04-06 11:05:00,25.6,-2.3,30.04,WNW,292,24.0,24.0,29,0.00,,,0.00,Wunderground v.1.15,2013-04-06 15:05:00,
2013-04-06 11:16:00,26.1,-1.2,30.04,WNW,292,21.0,21.0,30,0.00,,,0.00,Wunderground v.1.15,2013-04-06 15:16:00,
2013-04-06 11:26:00,26.6,-3.0,30.04,WNW,288,17.0,38.0,27,0.00,,,0.00,Wunderground v.1.15,2013-04-06 15:26:00,
2013-04-06 11:35:00,26.9,-2.7,30.06,North,11,14.0,38.0,27,0.00,,,0.00,Wunderground v.1.15,2013-04-06 15:35:00,
2013-04-06 11:45:00,27.6,-1.3,30.07,NW,314,12.0,12.0,28,0.00,,,0.00,Wunderground v.1.15,2013-04-06 15:45:00,
2013-04-06 11:56:00,29.0,-2.5,30.07,WNW,301,9.0,9.0,25,0.00,,,0.00,Wunderground v.1.15,2013-04-06 15:56:00,
2013-04-06 12:35:00,30.1,-0.7,30.10,NW,317,8.0,8.0,26,0.00,,,0.00,Wunderground v.1.15,2013-04-06 16:35:00,
2013-04-06 12:46:00,30.4,-0.5,30.11,ESE,108,7.0,7.0,26,0.00,,,0.00,Wunderground v.1.15,2013-04-06 16:46:00,
2013-04-06 12:56:00,30.9,-0.9,30.11,NNW,329,4.0,27.0,25,0.00,,,0.00,Wunderground v.1.15,2013-04-06 16:56:00,
2013-04-06 14:05:00,32.4,-2.3,30.11,WNW,298,14.0,14.0,22,0.00,,,0.00,Wunderground v.1.15,2013-04-06 18:05:00,
2013-04-06 14:16:00,32.8,-2.0,30.12,NW,315,11.0,11.0,22,0.00,,,0.00,Wunderground v.1.15,2013-04-06 18:16:00,
2013-04-06 14:45:00,33.1,-1.7,30.12,West,259,11.0,11.0,22,0.00,,,0.00,Wunderground v.1.15,2013-04-06 18:45:00,
2013-04-06 14:56:00,33.8,-1.1,30.12,NW,305,9.0,25.0,22,0.00,,,0.00,Wunderground v.1.15,2013-04-06 18:56:00,
2013-04-06 15:05:00,35.0,-1.1,30.11,NW,311,7.0,24.0,21,0.00,,,0.00,Wunderground v.1.15,2013-04-06 19:05:00,
2013-04-06 15:15:00,34.3,-0.7,30.12,West,275,11.0,11.0,22,0.00,,,0.00,Wunderground v.1.15,2013-04-06 19:15:00,
2013-04-06 15:26:00,35.0,-2.1,30.12,SSE,159,7.0,7.0,20,0.00,,,0.00,Wunderground v.1.15,2013-04-06 19:26:00,
2013-04-06 15:35:00,36.0,-1.3,30.11,West,265,5.0,23.0,20,0.00,,,0.00,Wunderground v.1.15,2013-04-06 19:35:00,
2013-04-06 15:46:00,35.8,-1.4,30.11,WNW,302,6.0,23.0,20,0.00,,,0.00,Wunderground v.1.15,2013-04-06 19:46:00,
2013-04-06 16:06:00,35.8,-0.4,30.12,NE,49,5.0,5.0,21,0.00,,,0.00,Wunderground v.1.15,2013-04-06 20:06:00,
2013-04-06 16:16:00,36.2,-2.2,30.13,NNE,26,4.0,18.0,19,0.00,,,0.00,Wunderground v.1.15,2013-04-06 20:16:00,
2013-04-06 17:06:00,37.0,-1.5,30.14,WSW,248,4.0,14.0,19,0.00,,,0.00,Wunderground v.1.15,2013-04-06 21:06:00,
2013-04-06 18:06:00,35.3,1.1,30.16,NW,306,10.0,16.0,23,0.00,,,0.00,Wunderground v.1.15,2013-04-06 22:06:00,
2013-04-06 18:35:00,34.1,1.0,30.18,NW,310,8.0,22.0,24,0.00,,,0.00,Wunderground v.1.15,2013-04-06 22:35:00,
2013-04-06 18:46:00,33.7,0.7,30.19,NW,321,9.0,9.0,24,0.00,,,0.00,Wunderground v.1.15,2013-04-06 22:46:00,
2013-04-06 19:06:00,32.8,0.8,30.20,NW,305,8.0,8.0,25,0.00,,,0.00,Wunderground v.1.15,2013-04-06 23:06:00,
2013-04-06 19:15:00,32.5,-0.4,30.21,WNW,283,5.0,24.0,24,0.00,,,0.00,Wunderground v.1.15,2013-04-06 23:15:00,
2013-04-06 19:25:00,32.4,-0.4,30.21,West,278,7.0,24.0,24,0.00,,,0.00,Wunderground v.1.15,2013-04-06 23:25:00,
2013-04-06 20:06:00,31.5,1.3,30.22,WNW,286,7.0,15.0,27,0.00,,,0.00,Wunderground v.1.15,2013-04-07 00:06:00,
2013-04-06 20:36:00,30.7,1.4,30.24,WSW,237,2.0,16.0,28,0.00,,,0.00,Wunderground v.1.15,2013-04-07 00:36:00,
2013-04-06 20:46:00,30.6,1.3,30.24,WNW,298,2.0,16.0,28,0.00,,,0.00,Wunderground v.1.15,2013-04-07 00:46:00,
2013-04-06 21:15:00,30.1,0.1,30.26,West,260,4.0,11.0,27,0.00,,,0.00,Wunderground v.1.15,2013-04-07 01:15:00,
2013-04-06 21:25:00,30.1,0.9,30.26,West,270,4.0,4.0,28,0.00,,,0.00,Wunderground v.1.15,2013-04-07 01:25:00,
2013-04-06 22:06:00,29.5,0.3,30.26,NNW,332,0.0,11.0,28,0.00,,,0.00,Wunderground v.1.15,2013-04-07 02:06:00,
2013-04-06 22:36:00,28.7,2.5,30.26,South,169,1.0,1.0,32,0.00,,,0.00,Wunderground v.1.15,2013-04-07 02:36:00,
2013-04-06 22:46:00,28.2,3.4,30.27,South,169,0.0,5.0,34,0.00,,,0.00,Wunderground v.1.15,2013-04-07 02:46:00,
2013-04-06 23:36:00,26.7,6.1,30.26,WNW,293,2.0,6.0,41,0.00,,,0.00,Wunderground v.1.15,2013-04-07 03:36:00,